createdAt,value
2022-11-09T00:01:02.726Z,14.60
2022-11-09T00:03:30.740Z,14.60
2022-11-09T00:05:59.978Z,14.60
2022-11-09T00:08:28.659Z,14.60
2022-11-09T00:10:56.782Z,14.60
2022-11-09T00:13:26.125Z,14.70
2022-11-09T00:15:54.255Z,14.70
2022-11-09T00:18:22.533Z,14.60
2022-11-09T00:20:50.523Z,14.60
2022-11-09T00:23:19.029Z,14.60
2022-11-09T00:25:47.732Z,14.50
2022-11-09T00:28:16.338Z,14.50
2022-11-09T00:30:45.789Z,14.50
2022-11-09T00:33:13.772Z,14.50
2022-11-09T00:35:41.717Z,14.50
2022-11-09T00:38:09.935Z,14.50
2022-11-09T00:40:38.367Z,14.50
2022-11-09T00:43:06.340Z,14.40
2022-11-09T00:45:34.461Z,14.40
2022-11-09T00:48:04.301Z,14.40
2022-11-09T00:50:32.312Z,14.30
2022-11-09T00:53:01.308Z,14.30
2022-11-09T00:55:29.288Z,14.30
2022-11-09T00:57:57.295Z,14.30
2022-11-09T01:00:25.727Z,14.20
2022-11-09T01:02:54.255Z,14.20
2022-11-09T01:05:23.571Z,14.20
2022-11-09T01:07:51.708Z,14.20
2022-11-09T01:10:19.802Z,14.20
2022-11-09T01:12:47.861Z,14.20
2022-11-09T01:15:15.939Z,14.20
2022-11-09T01:17:43.943Z,14.10
2022-11-09T01:20:12.954Z,14.10
2022-11-09T01:22:42.696Z,14.10
2022-11-09T01:25:11.008Z,14.10
2022-11-09T01:27:38.990Z,14.20
2022-11-09T01:30:08.210Z,14.20
2022-11-09T01:32:36.492Z,14.20
2022-11-09T01:35:04.612Z,14.20
2022-11-09T01:37:32.715Z,14.20
2022-11-09T01:40:02.047Z,14.10
2022-11-09T01:42:30.694Z,14.20
2022-11-09T01:45:32.135Z,14.20
2022-11-09T01:48:05.542Z,14.30
2022-11-09T01:50:40.388Z,14.40
2022-11-09T01:53:13.711Z,14.30
2022-11-09T01:55:44.318Z,14.40
2022-11-09T01:58:16.118Z,14.30
2022-11-09T02:00:48.874Z,14.30
2022-11-09T02:03:21.962Z,14.30
2022-11-09T02:05:50.986Z,14.30
2022-11-09T02:08:22.122Z,14.30
2022-11-09T02:10:58.711Z,14.20
2022-11-09T02:13:28.971Z,14.30
2022-11-09T02:15:57.141Z,14.30
2022-11-09T02:18:25.676Z,14.30
2022-11-09T02:20:57.429Z,14.30
2022-11-09T02:23:27.191Z,14.30
2022-11-09T02:25:59.930Z,14.30
2022-11-09T02:28:28.907Z,14.30
2022-11-09T02:30:58.080Z,14.30
2022-11-09T02:33:26.269Z,14.20
2022-11-09T02:35:55.716Z,14.20
2022-11-09T02:38:23.702Z,14.20
2022-11-09T02:40:53.547Z,14.20
2022-11-09T02:43:22.080Z,14.20
2022-11-09T02:45:50.207Z,14.20
2022-11-09T02:48:18.216Z,14.20
2022-11-09T02:50:46.747Z,14.20
2022-11-09T02:53:16.503Z,14.20
2022-11-09T02:55:44.807Z,14.20
2022-11-09T02:58:13.092Z,14.20
2022-11-09T03:00:41.113Z,14.30
2022-11-09T03:03:09.131Z,14.30
2022-11-09T03:05:38.348Z,14.30
2022-11-09T03:08:06.312Z,14.30
2022-11-09T03:10:35.648Z,14.30
2022-11-09T03:13:03.740Z,14.30
2022-11-09T03:15:32.043Z,14.30
2022-11-09T03:18:00.036Z,14.30
2022-11-09T03:20:28.221Z,14.20
2022-11-09T03:22:59.505Z,14.20
2022-11-09T03:25:27.923Z,14.20
2022-11-09T03:28:00.369Z,14.20
2022-11-09T03:30:28.589Z,14.10
2022-11-09T03:33:00.271Z,14.20
2022-11-09T03:35:28.313Z,14.20
2022-11-09T03:37:56.388Z,14.30
2022-11-09T03:40:24.524Z,14.30
2022-11-09T03:42:52.807Z,14.30
2022-11-09T03:45:22.222Z,14.30
2022-11-09T03:47:50.935Z,14.30
2022-11-09T03:50:19.373Z,14.30
2022-11-09T03:52:48.161Z,14.30
2022-11-09T03:55:16.424Z,14.40
2022-11-09T03:57:45.978Z,14.30
2022-11-09T04:00:16.519Z,14.40
2022-11-09T04:02:46.158Z,14.40
2022-11-09T04:05:14.299Z,14.40
2022-11-09T04:07:48.126Z,14.50
2022-11-09T04:10:16.300Z,14.50
2022-11-09T04:12:44.579Z,14.50
2022-11-09T04:15:13.166Z,14.50
2022-11-09T04:17:41.439Z,14.50
2022-11-09T04:20:11.882Z,14.50
2022-11-09T04:22:39.992Z,14.50
2022-11-09T04:25:08.633Z,14.50
2022-11-09T04:27:36.581Z,14.50
2022-11-09T04:30:05.436Z,14.50
2022-11-09T04:32:33.394Z,14.50
2022-11-09T04:35:01.357Z,14.50
2022-11-09T04:37:30.771Z,14.50
2022-11-09T04:39:58.754Z,14.50
2022-11-09T04:42:26.766Z,14.40
2022-11-09T04:44:54.787Z,14.50
2022-11-09T04:47:23.073Z,14.50
2022-11-09T04:49:51.349Z,14.40
2022-11-09T04:52:19.414Z,14.40
2022-11-09T04:54:48.768Z,14.50
2022-11-09T04:57:16.752Z,14.50
2022-11-09T04:59:45.485Z,14.50
2022-11-09T05:02:13.729Z,14.50
2022-11-09T05:04:41.738Z,14.50
2022-11-09T05:07:09.895Z,14.50
2022-11-09T05:09:38.239Z,14.50
2022-11-09T05:12:08.142Z,14.60
2022-11-09T05:14:36.227Z,14.60
2022-11-09T05:17:04.235Z,14.50
2022-11-09T05:19:32.205Z,14.50
2022-11-09T05:22:20.950Z,14.40
2022-11-09T05:24:47.906Z,14.40
2022-11-09T05:27:17.197Z,14.40
2022-11-09T05:29:45.465Z,14.40
2022-11-09T05:32:13.567Z,14.40
2022-11-09T05:34:41.552Z,14.40
2022-11-09T05:37:09.986Z,14.40
2022-11-09T05:39:38.281Z,14.40
2022-11-09T05:42:06.389Z,14.40
2022-11-09T05:44:35.776Z,14.30
2022-11-09T05:47:03.740Z,14.30
2022-11-09T05:49:32.008Z,14.30
2022-11-09T05:52:00.107Z,14.30
2022-11-09T05:54:28.062Z,14.30
2022-11-09T05:56:56.043Z,14.30
2022-11-09T05:59:24.414Z,14.30
2022-11-09T06:01:53.804Z,14.30
2022-11-09T06:04:21.969Z,14.30
2022-11-09T06:06:50.142Z,14.30
2022-11-09T06:09:18.116Z,14.30
2022-11-09T06:11:46.091Z,14.30
2022-11-09T06:14:14.268Z,14.30
2022-11-09T06:16:42.252Z,14.30
2022-11-09T06:19:12.055Z,14.30
2022-11-09T06:21:40.094Z,14.30
2022-11-09T06:24:08.577Z,14.30
2022-11-09T06:26:36.973Z,14.30
2022-11-09T06:29:05.914Z,14.30
2022-11-09T06:31:33.979Z,14.20
2022-11-09T06:34:03.234Z,14.20
2022-11-09T06:36:32.991Z,14.20
2022-11-09T06:39:00.992Z,14.20
2022-11-09T06:41:29.053Z,14.20
2022-11-09T06:43:57.157Z,14.20
2022-11-09T06:46:25.155Z,14.20
2022-11-09T06:48:54.720Z,14.20
2022-11-09T06:51:22.831Z,14.20
2022-11-09T06:53:52.220Z,14.20
2022-11-09T06:56:20.220Z,14.10
2022-11-09T06:58:48.246Z,14.10
2022-11-09T07:01:18.854Z,14.10
2022-11-09T07:03:47.164Z,14.10
2022-11-09T07:06:15.779Z,14.10
2022-11-09T07:08:43.865Z,14.00
2022-11-09T07:11:16.200Z,14.00
2022-11-09T07:13:44.606Z,13.90
2022-11-09T07:16:12.881Z,13.90
2022-11-09T07:18:41.416Z,13.90
2022-11-09T07:21:14.121Z,14.00
2022-11-09T07:23:43.073Z,13.90
2022-11-09T07:26:11.147Z,13.90
2022-11-09T07:28:40.474Z,13.90
2022-11-09T07:31:08.960Z,13.90
2022-11-09T07:33:37.098Z,13.90
2022-11-09T07:36:06.580Z,13.90
2022-11-09T07:38:34.662Z,13.80
2022-11-09T07:41:03.087Z,13.90
2022-11-09T07:43:31.396Z,13.90
2022-11-09T07:46:04.785Z,13.90
2022-11-09T07:48:32.911Z,13.90
2022-11-09T07:51:02.502Z,13.90
2022-11-09T07:53:30.926Z,13.90
2022-11-09T07:55:59.352Z,13.90
2022-11-09T07:58:27.329Z,13.90
2022-11-09T08:00:56.384Z,13.90
2022-11-09T08:03:26.529Z,13.90
2022-11-09T08:05:54.505Z,13.90
2022-11-09T08:08:22.636Z,13.90
2022-11-09T08:10:51.457Z,13.90
2022-11-09T08:13:20.493Z,13.90
2022-11-09T08:15:49.521Z,13.90
2022-11-09T08:18:19.501Z,14.00
2022-11-09T08:20:50.048Z,14.00
2022-11-09T08:23:20.856Z,14.10
2022-11-09T08:25:49.477Z,14.10
2022-11-09T08:28:17.768Z,14.10
2022-11-09T08:30:46.659Z,14.10
2022-11-09T08:33:14.908Z,14.10
2022-11-09T08:35:42.863Z,14.20
2022-11-09T08:38:12.513Z,14.20
2022-11-09T08:40:40.666Z,14.30
2022-11-09T08:43:11.368Z,14.30
2022-11-09T08:45:41.556Z,14.40
2022-11-09T08:48:11.251Z,14.40
2022-11-09T08:50:39.254Z,14.40
2022-11-09T08:53:08.533Z,14.40
2022-11-09T08:55:38.400Z,14.40
2022-11-09T08:58:06.357Z,14.50
2022-11-09T09:00:34.623Z,14.60
2022-11-09T09:03:05.209Z,14.50
2022-11-09T09:05:33.544Z,14.50
2022-11-09T09:08:02.032Z,14.50
2022-11-09T09:10:30.211Z,14.50
2022-11-09T09:12:59.644Z,14.60
2022-11-09T09:15:27.737Z,14.60
2022-11-09T09:17:55.734Z,14.70
2022-11-09T09:20:23.750Z,14.70
2022-11-09T09:22:51.880Z,14.70
2022-11-09T09:25:20.199Z,14.80
2022-11-09T09:27:48.190Z,14.90
2022-11-09T09:30:17.850Z,14.90
2022-11-09T09:32:45.857Z,14.90
2022-11-09T09:35:13.863Z,15.00
2022-11-09T09:37:42.057Z,15.00
2022-11-09T09:40:24.702Z,15.10
2022-11-09T09:42:56.189Z,15.10
2022-11-09T09:45:29.281Z,15.00
2022-11-09T09:48:02.039Z,15.00
2022-11-09T09:50:37.665Z,15.10
2022-11-09T09:53:25.189Z,15.10
2022-11-09T09:55:57.039Z,15.20
2022-11-09T09:58:31.089Z,15.30
2022-11-09T10:01:06.630Z,15.30
2022-11-09T10:03:35.278Z,15.30
2022-11-09T10:06:14.527Z,15.30
2022-11-09T10:08:51.334Z,15.40
2022-11-09T10:11:30.706Z,15.40
2022-11-09T10:14:15.251Z,15.40
2022-11-09T10:16:53.422Z,15.40
2022-11-09T10:19:34.785Z,15.30
2022-11-09T10:22:13.360Z,15.30
2022-11-09T10:27:39.156Z,15.30
2022-11-09T10:30:15.004Z,15.30
2022-11-09T10:32:47.911Z,15.30
2022-11-09T10:35:20.918Z,15.40
2022-11-09T10:37:50.146Z,15.60
2022-11-09T10:40:23.815Z,15.70
2022-11-09T10:42:54.855Z,15.70
2022-11-09T10:45:30.912Z,15.60
2022-11-09T10:48:01.204Z,15.60
2022-11-09T10:50:35.605Z,15.50
2022-11-09T10:53:18.511Z,15.60
2022-11-09T10:55:54.870Z,15.60
2022-11-09T10:58:29.584Z,15.70
2022-11-09T11:01:06.678Z,15.80
2022-11-09T11:03:38.813Z,15.90
2022-11-09T11:06:08.673Z,16.00
2022-11-09T11:08:40.285Z,16.00
2022-11-09T11:11:37.918Z,16.10
2022-11-09T11:14:21.520Z,16.10
2022-11-09T11:16:53.489Z,16.10
2022-11-09T11:19:35.510Z,16.00
2022-11-09T11:22:23.801Z,16.00
2022-11-09T11:24:57.666Z,16.10
2022-11-09T11:27:31.682Z,16.10
2022-11-09T11:30:06.606Z,16.20
2022-11-09T11:32:34.853Z,16.20
2022-11-09T11:35:05.755Z,16.20
2022-11-09T11:37:45.735Z,16.20
2022-11-09T11:40:21.301Z,16.30
2022-11-09T11:43:22.968Z,16.40
2022-11-09T11:45:58.644Z,16.40
2022-11-09T11:48:45.129Z,16.60
2022-11-09T11:51:19.368Z,16.60
2022-11-09T11:54:06.199Z,16.70
2022-11-09T11:56:38.904Z,16.80
2022-11-09T11:59:37.362Z,16.80
2022-11-09T12:02:35.269Z,16.80
2022-11-09T12:05:34.555Z,16.80
2022-11-09T12:08:14.049Z,16.80
2022-11-09T12:10:56.509Z,16.80
2022-11-09T12:13:49.456Z,17.00
2022-11-09T12:16:25.817Z,17.00
2022-11-09T12:19:03.041Z,17.00
2022-11-09T12:21:39.330Z,17.10
2022-11-09T12:24:22.816Z,17.00
2022-11-09T12:27:32.839Z,16.90
2022-11-09T12:30:07.196Z,16.90
2022-11-09T12:32:41.529Z,16.80
2022-11-09T12:35:25.739Z,16.80
2022-11-09T12:37:58.057Z,16.80
2022-11-09T12:40:30.990Z,16.90
2022-11-09T12:43:04.952Z,16.90
2022-11-09T12:45:35.605Z,16.90
2022-11-09T12:48:13.112Z,16.90
2022-11-09T12:50:41.608Z,16.90
2022-11-09T12:53:10.237Z,16.90
2022-11-09T12:55:47.825Z,17.00
2022-11-09T12:58:26.492Z,17.10
2022-11-09T13:00:57.303Z,17.00
2022-11-09T13:03:31.340Z,17.10
2022-11-09T13:06:20.807Z,17.00
2022-11-09T13:09:02.291Z,16.90
2022-11-09T13:11:38.206Z,16.80
2022-11-09T13:14:30.284Z,16.70
2022-11-09T13:16:59.802Z,16.60
2022-11-09T13:19:54.303Z,16.60
2022-11-09T13:23:00.365Z,16.60
2022-11-09T13:25:48.156Z,16.50
2022-11-09T13:28:45.492Z,16.40
2022-11-09T13:31:13.879Z,16.40
2022-11-09T13:33:42.262Z,16.20
2022-11-09T13:36:20.631Z,16.20
2022-11-09T13:39:28.768Z,16.20
2022-11-09T13:41:57.010Z,16.20
2022-11-09T13:44:32.952Z,16.20
2022-11-09T13:47:04.188Z,16.20
2022-11-09T13:49:45.026Z,16.20
2022-11-09T13:52:48.338Z,16.30
2022-11-09T13:55:22.621Z,16.40
2022-11-09T13:57:50.848Z,16.40
2022-11-09T14:00:24.074Z,16.50
2022-11-09T14:02:57.073Z,16.50
2022-11-09T14:05:27.444Z,16.50
2022-11-09T14:07:56.648Z,16.40
2022-11-09T14:10:43.350Z,16.30
2022-11-09T14:13:53.139Z,16.10
2022-11-09T14:16:28.663Z,16.10
2022-11-09T14:19:10.989Z,16.00
2022-11-09T14:21:45.451Z,16.00
2022-11-09T14:24:20.121Z,15.90
2022-11-09T14:27:02.881Z,15.90
2022-11-09T14:29:33.093Z,15.90
2022-11-09T14:32:17.082Z,15.90
2022-11-09T14:34:45.488Z,15.80
2022-11-09T14:37:14.905Z,15.80
2022-11-09T14:39:43.029Z,15.80
2022-11-09T14:42:18.708Z,15.70
2022-11-09T14:44:47.831Z,15.70
2022-11-09T14:47:19.610Z,15.70
2022-11-09T14:49:48.488Z,15.70
2022-11-09T14:52:20.557Z,15.60
2022-11-09T14:54:51.134Z,15.60
2022-11-09T14:57:19.800Z,15.50
2022-11-09T14:59:47.945Z,15.40
2022-11-09T15:02:20.202Z,15.30
2022-11-09T15:04:55.935Z,15.30
2022-11-09T15:07:26.601Z,15.20
2022-11-09T15:09:57.509Z,15.10
2022-11-09T15:12:26.384Z,15.10
2022-11-09T15:14:57.074Z,15.00
2022-11-09T15:17:28.634Z,14.90
2022-11-09T15:19:58.817Z,14.80
2022-11-09T15:22:50.493Z,14.80
2022-11-09T15:25:31.586Z,14.80
2022-11-09T15:28:04.105Z,14.70
2022-11-09T15:30:35.622Z,14.70
2022-11-09T15:33:24.194Z,14.70
2022-11-09T15:35:53.610Z,14.70
2022-11-09T15:38:31.857Z,14.70
2022-11-09T15:40:59.987Z,14.60
2022-11-09T15:43:28.636Z,14.60
2022-11-09T15:45:58.120Z,14.50
2022-11-09T15:48:27.649Z,14.50
2022-11-09T15:50:56.105Z,14.50
2022-11-09T15:53:24.895Z,14.60
2022-11-09T15:55:52.975Z,14.50
2022-11-09T15:58:21.122Z,14.50
2022-11-09T16:00:49.346Z,14.50
2022-11-09T16:03:18.027Z,14.40
2022-11-09T16:05:47.377Z,14.40
2022-11-09T16:08:15.447Z,14.40
2022-11-09T16:10:44.708Z,14.30
2022-11-09T16:13:12.926Z,14.30
2022-11-09T16:15:40.982Z,14.20
2022-11-09T16:18:09.167Z,14.20
2022-11-09T16:20:37.206Z,14.10
2022-11-09T16:23:06.558Z,14.10
2022-11-09T16:25:34.612Z,14.10
2022-11-09T16:28:02.564Z,14.10
2022-11-09T16:30:30.620Z,14.10
2022-11-09T16:32:58.739Z,14.10
2022-11-09T16:35:28.242Z,14.00
2022-11-09T16:37:57.011Z,13.90
2022-11-09T16:40:27.719Z,14.00
2022-11-09T16:42:56.262Z,14.00
2022-11-09T16:45:29.062Z,13.90
2022-11-09T16:48:00.721Z,14.00
2022-11-09T16:50:28.724Z,13.90
2022-11-09T16:52:56.703Z,13.80
2022-11-09T16:55:26.162Z,13.80
2022-11-09T16:57:54.799Z,13.90
2022-11-09T17:00:27.665Z,13.80
2022-11-09T17:03:06.016Z,13.80
2022-11-09T17:05:34.050Z,13.80
2022-11-09T17:08:02.047Z,13.80
2022-11-09T17:10:32.008Z,13.80
2022-11-09T17:13:00.055Z,13.80
2022-11-09T17:15:28.261Z,13.90
2022-11-09T17:17:56.682Z,13.90
2022-11-09T17:20:25.457Z,13.80
2022-11-09T17:22:53.869Z,13.90
2022-11-09T17:25:22.196Z,13.90
2022-11-09T17:27:51.496Z,13.90
2022-11-09T17:30:19.584Z,13.90
2022-11-09T17:32:48.657Z,13.90
2022-11-09T17:35:16.961Z,13.90
2022-11-09T17:37:45.246Z,13.80
2022-11-09T17:40:13.643Z,13.80
2022-11-09T17:42:42.042Z,13.80
2022-11-09T17:45:12.133Z,13.70
2022-11-09T17:47:40.438Z,13.80
2022-11-09T17:50:09.591Z,13.80
2022-11-09T17:52:37.536Z,13.80
2022-11-09T17:55:06.181Z,13.80
2022-11-09T17:57:34.582Z,13.80
2022-11-09T18:00:02.709Z,13.80
2022-11-09T18:02:32.434Z,13.80
2022-11-09T18:05:00.488Z,13.80
2022-11-09T18:07:29.790Z,13.70
2022-11-09T18:09:58.517Z,13.60
2022-11-09T18:12:26.640Z,13.60
2022-11-09T18:14:54.641Z,13.40
2022-11-09T18:17:22.765Z,13.30
2022-11-09T18:19:52.128Z,13.30
2022-11-09T18:22:20.175Z,13.30
2022-11-09T18:24:48.603Z,13.30
2022-11-09T18:27:16.959Z,13.20
2022-11-09T18:29:44.878Z,13.20
2022-11-09T18:32:13.223Z,13.20
2022-11-09T18:34:41.228Z,13.20
2022-11-09T18:37:11.067Z,13.10
2022-11-09T18:39:39.143Z,13.10
2022-11-09T18:42:07.309Z,13.10
2022-11-09T18:44:35.245Z,13.00
2022-11-09T18:47:05.488Z,13.00
2022-11-09T18:49:34.107Z,12.90
2022-11-09T18:52:02.092Z,12.90
2022-11-09T18:54:32.672Z,12.80
2022-11-09T18:57:00.646Z,12.80
2022-11-09T18:59:29.024Z,12.70
2022-11-09T19:01:57.168Z,12.70
2022-11-09T19:04:25.446Z,12.60
2022-11-09T19:06:54.742Z,12.60
2022-11-09T19:09:35.164Z,12.60
2022-11-09T19:12:08.078Z,12.50
2022-11-09T19:14:40.998Z,12.50
2022-11-09T19:17:13.032Z,12.50
2022-11-09T19:19:42.308Z,12.40
2022-11-09T19:22:15.786Z,12.40
2022-11-09T19:24:44.416Z,12.40
2022-11-09T19:27:14.115Z,12.40
2022-11-09T19:29:42.361Z,12.40
2022-11-09T19:32:10.659Z,12.30
2022-11-09T19:34:38.672Z,12.40
2022-11-09T19:37:07.056Z,12.40
2022-11-09T19:39:38.083Z,12.30
2022-11-09T19:42:08.744Z,12.20
2022-11-09T19:44:38.407Z,12.20
2022-11-09T19:47:06.626Z,12.10
2022-11-09T19:49:34.730Z,12.10
2022-11-09T19:52:02.784Z,12.10
2022-11-09T19:54:30.704Z,12.10
2022-11-09T19:56:58.699Z,12.10
2022-11-09T19:59:26.765Z,12.00
2022-11-09T20:01:56.082Z,12.00
2022-11-09T20:04:24.057Z,11.90
2022-11-09T20:06:52.388Z,11.90
2022-11-09T20:09:20.495Z,11.90
2022-11-09T20:12:06.322Z,12.00
2022-11-09T20:14:34.471Z,11.90
2022-11-09T20:17:03.899Z,11.90
2022-11-09T20:19:32.076Z,12.00
2022-11-09T20:22:00.592Z,11.90
2022-11-09T20:24:28.647Z,11.90
2022-11-09T20:26:56.943Z,11.90
2022-11-09T20:29:25.533Z,11.80
2022-11-09T20:31:53.548Z,11.80
2022-11-09T20:34:23.189Z,11.80
2022-11-09T20:36:51.148Z,11.80
2022-11-09T20:39:19.295Z,11.80
2022-11-09T20:41:47.680Z,11.80
2022-11-09T20:44:16.752Z,11.80
2022-11-09T20:46:45.382Z,11.80
2022-11-09T20:49:13.463Z,11.80
2022-11-09T20:51:43.381Z,11.80
2022-11-09T20:54:11.616Z,11.80
2022-11-09T20:56:39.642Z,11.80
2022-11-09T20:59:07.770Z,11.80
2022-11-09T21:01:35.768Z,11.70
2022-11-09T21:04:04.426Z,11.70
2022-11-09T21:06:33.250Z,11.80
2022-11-09T21:09:05.605Z,11.80
2022-11-09T21:11:36.184Z,11.90
2022-11-09T21:14:04.629Z,11.90
2022-11-09T21:16:32.991Z,11.90
2022-11-09T21:19:00.910Z,11.90
2022-11-09T21:21:35.089Z,11.90
2022-11-09T21:24:24.335Z,12.00
2022-11-09T21:27:09.942Z,11.90
2022-11-09T21:29:53.122Z,11.90
2022-11-09T21:32:22.281Z,11.80
2022-11-09T21:34:51.601Z,11.80
2022-11-09T21:37:19.724Z,11.80
2022-11-09T21:39:49.181Z,11.90
2022-11-09T21:42:17.509Z,11.90
2022-11-09T21:44:45.635Z,11.90
2022-11-09T21:47:13.671Z,11.80
2022-11-09T21:49:41.772Z,11.80
2022-11-09T21:52:10.478Z,11.80
2022-11-09T21:54:38.887Z,11.80
2022-11-09T21:57:08.783Z,11.80
2022-11-09T21:59:36.857Z,11.80
2022-11-09T22:02:05.039Z,11.80
2022-11-09T22:04:33.043Z,11.70
2022-11-09T22:07:01.287Z,11.70
2022-11-09T22:09:35.690Z,11.70
2022-11-09T22:12:31.992Z,11.70
2022-11-09T22:15:17.614Z,11.70
2022-11-09T22:17:46.222Z,11.70
2022-11-09T22:20:32.028Z,11.70
2022-11-09T22:23:00.954Z,11.70
2022-11-09T22:25:28.916Z,11.70
2022-11-09T22:27:58.426Z,11.60
2022-11-09T22:30:26.732Z,11.60
2022-11-09T22:32:54.795Z,11.70
2022-11-09T22:35:23.012Z,11.60
2022-11-09T22:37:51.423Z,11.70
2022-11-09T22:40:19.735Z,11.60
2022-11-09T22:42:47.804Z,11.50
2022-11-09T22:45:17.478Z,11.50
2022-11-09T22:47:45.488Z,11.50
2022-11-09T22:50:13.839Z,11.50
2022-11-09T22:52:42.244Z,11.50
2022-11-09T22:55:10.949Z,11.50
2022-11-09T22:57:39.010Z,11.60
2022-11-09T23:00:10.839Z,11.50
2022-11-09T23:02:40.412Z,11.50
2022-11-09T23:05:09.095Z,11.50
2022-11-09T23:07:37.176Z,11.50
2022-11-09T23:10:05.581Z,11.50
2022-11-09T23:12:34.151Z,11.50
2022-11-09T23:15:05.072Z,11.50
2022-11-09T23:17:50.872Z,11.40
2022-11-09T23:20:21.224Z,11.40
2022-11-09T23:22:49.707Z,11.40
2022-11-09T23:25:35.427Z,11.30
2022-11-09T23:28:04.222Z,11.30
2022-11-09T23:30:32.268Z,11.40
2022-11-09T23:33:02.348Z,11.30
2022-11-09T23:35:31.763Z,11.30
2022-11-09T23:38:00.152Z,11.30
2022-11-09T23:40:29.034Z,11.30
2022-11-09T23:43:01.125Z,11.30
2022-11-09T23:45:29.374Z,11.20
2022-11-09T23:47:57.628Z,11.20
2022-11-09T23:50:25.668Z,11.20
2022-11-09T23:52:57.266Z,11.20
2022-11-09T23:55:25.254Z,11.20
2022-11-09T23:57:53.240Z,11.20
